createdAt,value
2019-03-15T00:03:07.573Z,14.87
2019-03-15T00:09:13.424Z,12.77
2019-03-15T00:15:19.202Z,17.33
2019-03-15T00:21:25.096Z,12.80
2019-03-15T00:27:30.823Z,19.20
2019-03-15T00:33:36.642Z,15.27
2019-03-15T00:39:42.595Z,12.90
2019-03-15T00:45:48.610Z,14.20
2019-03-15T00:51:54.432Z,14.63
2019-03-15T00:58:00.224Z,15.27
2019-03-15T01:04:09.245Z,16.73
2019-03-15T01:10:13.698Z,14.30
2019-03-15T01:16:19.484Z,17.93
2019-03-15T01:22:25.398Z,19.47
2019-03-15T01:28:31.141Z,17.43
2019-03-15T01:34:36.868Z,23.30
2019-03-15T01:40:42.676Z,15.20
2019-03-15T01:46:48.477Z,15.30
2019-03-15T01:52:54.511Z,17.33
2019-03-15T01:59:00.285Z,13.47
2019-03-15T02:05:06.172Z,14.07
2019-03-15T02:11:11.903Z,17.93
2019-03-15T02:17:17.737Z,12.53
2019-03-15T02:23:23.621Z,17.43
2019-03-15T02:29:29.544Z,15.03
2019-03-15T02:35:35.638Z,19.00
2019-03-15T02:41:41.495Z,13.80
2019-03-15T02:47:47.252Z,17.13
2019-03-15T02:53:53.029Z,18.67
2019-03-15T02:59:58.765Z,17.70
2019-03-15T03:06:04.476Z,16.00
2019-03-15T03:12:10.271Z,10.27
2019-03-15T03:18:16.084Z,10.63
2019-03-15T03:24:22.203Z,14.43
2019-03-15T03:30:28.018Z,13.33
2019-03-15T03:36:33.836Z,14.77
2019-03-15T03:42:39.557Z,12.37
2019-03-15T03:48:45.330Z,10.67
2019-03-15T03:54:51.484Z,8.83
2019-03-15T04:00:57.411Z,10.03
2019-03-15T04:07:03.198Z,8.30
2019-03-15T04:13:08.899Z,14.83
2019-03-15T04:19:14.793Z,8.00
2019-03-15T04:25:20.520Z,9.17
2019-03-15T04:31:26.429Z,12.10
2019-03-15T04:37:32.376Z,10.20
2019-03-15T04:43:38.268Z,12.73
2019-03-15T04:49:44.137Z,11.10
2019-03-15T04:55:50.211Z,12.73
2019-03-15T05:01:55.990Z,7.93
2019-03-15T05:08:01.952Z,12.63
2019-03-15T05:14:07.867Z,11.47
2019-03-15T05:20:13.645Z,10.27
2019-03-15T05:26:19.438Z,13.20
2019-03-15T05:32:25.196Z,10.43
2019-03-15T05:38:31.021Z,11.40
2019-03-15T05:44:36.830Z,14.40
2019-03-15T05:50:42.543Z,8.97
2019-03-15T05:56:48.304Z,15.43
2019-03-15T06:02:54.260Z,10.53
2019-03-15T06:09:00.164Z,13.60
2019-03-15T06:15:06.333Z,16.70
2019-03-15T06:21:12.096Z,15.20
2019-03-15T06:27:17.908Z,12.83
2019-03-15T06:33:23.663Z,19.70
2019-03-15T06:39:29.441Z,16.03
2019-03-15T06:45:35.210Z,10.57
2019-03-15T06:51:41.083Z,14.87
2019-03-15T06:57:47.158Z,15.40
2019-03-15T07:03:53.192Z,16.53
2019-03-15T07:09:59.027Z,20.40
2019-03-15T07:16:04.987Z,16.83
2019-03-15T07:22:10.789Z,16.40
2019-03-15T07:28:16.534Z,18.23
2019-03-15T07:34:22.353Z,12.23
2019-03-15T07:40:28.128Z,15.23
2019-03-15T07:46:33.871Z,11.47
2019-03-15T07:52:39.825Z,17.50
2019-03-15T07:58:45.577Z,12.50
2019-03-15T08:04:51.496Z,14.93
2019-03-15T08:10:58.243Z,17.17
2019-03-15T08:17:04.334Z,12.50
2019-03-15T08:23:10.285Z,9.63
2019-03-15T08:29:16.015Z,10.23
2019-03-15T08:35:24.392Z,8.23
2019-03-15T08:41:29.570Z,6.87
2019-03-15T08:47:35.734Z,10.40
2019-03-15T08:53:41.552Z,9.57
2019-03-15T08:59:55.530Z,7.73
2019-03-15T09:05:55.153Z,6.37
2019-03-15T09:12:01.015Z,7.03
2019-03-15T09:18:06.910Z,7.63
2019-03-15T09:24:13.398Z,5.93
2019-03-15T09:30:24.175Z,6.20
2019-03-15T09:36:27.296Z,6.53
2019-03-15T09:42:33.061Z,7.83
2019-03-15T09:48:38.947Z,9.43
2019-03-15T09:54:44.771Z,9.17
2019-03-15T10:00:50.607Z,9.83
2019-03-15T10:06:56.915Z,11.47
2019-03-15T10:13:06.282Z,11.80
2019-03-15T10:19:10.378Z,11.10
2019-03-15T10:25:16.203Z,12.33
2019-03-15T10:31:22.071Z,10.10
2019-03-15T10:37:27.801Z,9.93
2019-03-15T10:43:33.676Z,11.00
2019-03-15T10:49:39.416Z,10.67
2019-03-15T10:55:59.092Z,10.87
2019-03-15T11:01:54.069Z,12.97
2019-03-15T11:08:00.132Z,15.50
2019-03-15T11:14:05.930Z,17.53
2019-03-15T11:20:12.320Z,16.93
2019-03-15T11:26:18.265Z,16.23
2019-03-15T11:32:24.110Z,19.77
2019-03-15T11:38:29.943Z,22.87
2019-03-15T11:44:35.760Z,18.40
2019-03-15T11:50:41.531Z,19.73
2019-03-15T11:56:50.613Z,20.40
2019-03-15T12:02:57.072Z,19.80
2019-03-15T12:09:02.958Z,20.13
2019-03-15T12:15:10.103Z,18.97
2019-03-15T12:21:15.853Z,16.50
2019-03-15T12:27:21.680Z,20.40
2019-03-15T12:33:28.783Z,19.40
2019-03-15T12:39:34.682Z,12.17
2019-03-15T12:45:40.689Z,16.57
2019-03-15T12:51:46.794Z,16.67
2019-03-15T12:57:52.753Z,15.37
2019-03-15T13:03:58.715Z,9.77
2019-03-15T13:10:04.584Z,11.27
2019-03-15T13:16:10.623Z,9.70
2019-03-15T13:22:16.367Z,15.43
2019-03-15T13:28:22.162Z,8.87
2019-03-15T13:34:28.145Z,11.97
2019-03-15T13:40:33.865Z,10.40
2019-03-15T13:46:39.638Z,15.30
2019-03-15T13:52:45.485Z,9.33
2019-03-15T13:58:57.125Z,11.80
2019-03-15T14:04:58.771Z,8.27
2019-03-15T14:11:04.675Z,9.13
2019-03-15T14:17:10.841Z,7.40
2019-03-15T14:23:16.802Z,6.30
2019-03-15T14:29:22.939Z,7.30
2019-03-15T14:35:28.847Z,6.67
2019-03-15T14:41:34.804Z,5.30
2019-03-15T14:47:40.697Z,8.73
2019-03-15T14:53:46.607Z,5.77
2019-03-15T14:59:52.514Z,6.47
2019-03-15T15:05:58.322Z,7.43
2019-03-15T15:12:04.098Z,9.77
2019-03-15T15:18:09.988Z,4.43
2019-03-15T15:24:16.074Z,5.97
2019-03-15T15:30:21.848Z,8.67
2019-03-15T15:36:27.774Z,9.60
2019-03-15T15:42:33.912Z,11.57
2019-03-15T15:48:39.729Z,10.57
2019-03-15T15:54:45.580Z,14.20
2019-03-15T16:00:51.643Z,14.13
2019-03-15T16:06:57.404Z,15.27
2019-03-15T16:13:16.545Z,9.00
2019-03-15T16:19:11.219Z,9.53
2019-03-15T16:25:17.070Z,14.23
2019-03-15T16:31:22.909Z,14.47
2019-03-15T16:37:29.006Z,12.90
2019-03-15T16:43:35.106Z,11.03
2019-03-15T16:49:40.922Z,9.20
2019-03-15T16:55:46.762Z,13.23
2019-03-15T17:01:54.294Z,5.80
2019-03-15T17:08:00.365Z,5.53
2019-03-15T17:14:06.268Z,4.03
2019-03-15T17:20:12.665Z,5.07
2019-03-15T17:26:18.585Z,5.23
2019-03-15T17:32:24.415Z,5.17
2019-03-15T17:38:30.169Z,5.73
2019-03-15T17:44:36.121Z,4.03
2019-03-15T17:50:42.011Z,6.50
2019-03-15T17:56:47.833Z,7.80
2019-03-15T18:02:53.576Z,5.43
2019-03-15T18:08:59.817Z,6.80
2019-03-15T18:15:06.069Z,7.57
2019-03-15T18:21:12.159Z,9.33
2019-03-15T18:27:17.943Z,5.50
2019-03-15T18:33:23.850Z,10.30
2019-03-15T18:39:29.721Z,6.93
2019-03-15T18:45:35.476Z,9.73
2019-03-15T18:51:41.419Z,11.30
2019-03-15T18:57:47.554Z,11.03
2019-03-15T19:03:53.384Z,8.67
2019-03-15T19:09:59.239Z,12.63
2019-03-15T19:16:05.291Z,16.43
2019-03-15T19:22:11.112Z,14.03
2019-03-15T19:28:18.199Z,15.17
2019-03-15T19:34:24.639Z,11.37
2019-03-15T19:40:30.748Z,9.97
2019-03-15T19:46:36.613Z,13.37
2019-03-15T19:52:42.417Z,12.73
2019-03-15T19:58:48.433Z,17.07
2019-03-15T20:04:54.475Z,11.67
2019-03-15T20:11:00.399Z,13.53
2019-03-15T20:17:06.328Z,11.63
2019-03-15T20:23:12.293Z,17.60
2019-03-15T20:29:18.188Z,15.13
2019-03-15T20:35:24.123Z,9.70
2019-03-15T20:41:29.983Z,12.90
2019-03-15T20:47:36.309Z,12.07
2019-03-15T20:53:42.363Z,17.07
2019-03-15T20:59:48.197Z,11.07
2019-03-15T21:05:55.646Z,13.63
2019-03-15T21:12:01.585Z,14.77
2019-03-15T21:18:07.680Z,10.10
2019-03-15T21:24:13.738Z,13.53
2019-03-15T21:30:20.035Z,15.57
2019-03-15T21:36:26.180Z,12.87
2019-03-15T21:42:32.123Z,16.83
2019-03-15T21:48:38.498Z,7.07
2019-03-15T21:54:44.347Z,15.50
2019-03-15T22:01:01.594Z,10.33
2019-03-15T22:06:59.052Z,15.23
2019-03-15T22:13:04.939Z,14.17
2019-03-15T22:19:10.843Z,13.53
2019-03-15T22:25:16.847Z,12.07
2019-03-15T22:31:22.751Z,17.70
2019-03-15T22:37:28.540Z,9.47
2019-03-15T22:43:34.380Z,13.07
2019-03-15T22:49:40.207Z,12.13
2019-03-15T22:55:45.937Z,13.00
2019-03-15T23:01:51.749Z,11.87
2019-03-15T23:07:57.669Z,11.50
2019-03-15T23:14:03.570Z,12.83
2019-03-15T23:20:09.655Z,12.13
2019-03-15T23:26:15.545Z,10.77
2019-03-15T23:32:21.268Z,13.83
2019-03-15T23:38:27.034Z,15.47
2019-03-15T23:44:32.794Z,8.17
2019-03-15T23:50:38.566Z,11.20
2019-03-15T23:56:44.459Z,10.30
